Time;durP1;ratioP1;P1;durP2;ratioP2;P2;SDS_P1;SDS_P2;PMS_P1;PMS_P2;Temp;Humidity;BMP_temperature;BMP_pressure;BME280_temperature;BME280_humidity;BME280_pressure;Samples;Min_cycle;Max_cycle;Signal;HPM_P1;HPM_P2
2021/01/26 00:00:53;;;;;;;17.47;10.30;;;2.80;99.90;;;;;;5015037;28;20572;-63
2021/01/26 00:03:20;;;;;;;17.00;10.13;;;2.80;99.90;;;;;;5013447;28;20168;-62
2021/01/26 00:05:46;;;;;;;17.97;12.10;;;2.80;99.90;;;;;;5028384;28;20199;-60
2021/01/26 00:08:12;;;;;;;18.77;11.57;;;2.90;99.90;;;;;;5032535;28;20281;-64
2021/01/26 00:10:38;;;;;;;18.33;11.07;;;2.90;99.90;;;;;;5014664;28;20536;-63
2021/01/26 00:13:05;;;;;;;18.10;11.43;;;2.90;99.90;;;;;;5012899;28;20198;-63
2021/01/26 00:15:31;;;;;;;20.87;10.57;;;3.00;99.90;;;;;;5028885;28;20211;-64
2021/01/26 00:17:58;;;;;;;18.60;12.33;;;2.90;99.90;;;;;;5032306;28;20250;-63
2021/01/26 00:20:24;;;;;;;22.77;11.47;;;3.00;99.90;;;;;;5017528;28;20507;-64
2021/01/26 00:22:50;;;;;;;16.83;10.67;;;3.00;99.90;;;;;;5012767;28;20676;-63
2021/01/26 00:25:20;;;;;;;19.93;10.90;;;3.00;99.90;;;;;;5031352;28;20207;-63
2021/01/26 00:27:46;;;;;;;19.40;10.10;;;3.00;99.90;;;;;;5031992;28;20589;-64
2021/01/26 00:30:21;;;;;;;13.23;9.90;;;3.00;99.90;;;;;;5014122;28;20180;-62
2021/01/26 00:32:47;;;;;;;17.53;10.30;;;3.00;99.90;;;;;;5012536;28;20180;-62
2021/01/26 00:35:14;;;;;;;14.30;10.53;;;3.00;99.90;;;;;;5029570;28;20640;-63
2021/01/26 00:37:40;;;;;;;15.00;10.63;;;2.90;99.90;;;;;;5022829;28;20688;-63
2021/01/26 00:40:07;;;;;;;13.57;9.20;;;2.90;99.90;;;;;;5014267;28;20183;-63
2021/01/26 00:42:33;;;;;;;25.23;12.07;;;2.90;99.90;;;;;;5032137;28;20255;-63
2021/01/26 00:44:58;;;;;;;18.97;10.97;;;2.90;99.90;;;;;;5031288;28;20642;-64
2021/01/26 00:47:24;;;;;;;18.60;11.57;;;2.90;99.90;;;;;;5012522;28;20188;-64
2021/01/26 00:49:49;;;;;;;18.00;11.10;;;3.00;99.90;;;;;;5011307;28;20216;-63
2021/01/26 00:52:15;;;;;;;14.33;8.23;;;3.00;99.90;;;;;;5030447;28;20278;-64
2021/01/26 00:54:40;;;;;;;12.90;8.73;;;3.00;99.90;;;;;;5031810;28;20207;-62
2021/01/26 00:57:06;;;;;;;15.77;10.40;;;3.00;99.90;;;;;;5014679;28;20184;-64
2021/01/26 00:59:32;;;;;;;13.97;9.83;;;3.00;99.90;;;;;;5012103;28;20593;-63
2021/01/26 01:01:58;;;;;;;14.00;9.07;;;3.00;99.90;;;;;;5023087;28;20702;-63
2021/01/26 01:04:24;;;;;;;17.73;9.40;;;3.10;99.90;;;;;;5047303;28;20552;-63
2021/01/26 01:06:50;;;;;;;14.43;9.13;;;3.10;99.90;;;;;;5018046;28;20204;-62
2021/01/26 01:09:15;;;;;;;15.67;9.53;;;3.10;99.90;;;;;;5011982;28;20191;-63
2021/01/26 01:11:41;;;;;;;24.00;10.07;;;3.10;99.90;;;;;;5023312;28;20548;-63
2021/01/26 01:14:07;;;;;;;13.70;9.77;;;3.10;99.90;;;;;;5031593;28;20206;-63
2021/01/26 01:16:33;;;;;;;14.07;10.03;;;3.10;99.90;;;;;;5021450;28;20208;-64
2021/01/26 01:18:59;;;;;;;22.03;10.90;;;3.10;99.90;;;;;;5016792;28;20190;-62
2021/01/26 01:21:24;;;;;;;17.93;10.13;;;3.10;99.90;;;;;;5031686;28;20183;-64
2021/01/26 01:23:50;;;;;;;19.57;9.70;;;3.10;99.90;;;;;;5027707;28;20180;-64
2021/01/26 01:26:15;;;;;;;18.07;10.43;;;3.10;99.90;;;;;;5011963;28;20204;-64
2021/01/26 01:28:41;;;;;;;13.00;8.13;;;3.10;99.90;;;;;;5012994;28;20180;-63
2021/01/26 01:31:07;;;;;;;16.40;10.10;;;3.10;99.90;;;;;;5031441;28;20213;-63
2021/01/26 01:33:32;;;;;;;15.00;9.50;;;3.10;99.90;;;;;;5031070;28;20729;-63
2021/01/26 01:35:58;;;;;;;15.63;10.00;;;3.10;99.90;;;;;;4991941;28;20200;-63
2021/01/26 01:38:24;;;;;;;16.60;9.93;;;3.10;99.90;;;;;;4991813;28;20184;-63
2021/01/26 01:40:52;;;;;;;11.93;8.27;;;3.10;99.90;;;;;;5028657;28;20180;-62
2021/01/26 01:43:18;;;;;;;13.97;8.77;;;3.10;99.90;;;;;;5031422;28;20179;-62
2021/01/26 01:45:43;;;;;;;13.40;8.47;;;3.10;99.90;;;;;;5013976;28;20215;-64
2021/01/26 01:48:21;;;;;;;13.70;8.27;;;3.10;99.90;;;;;;5023316;28;20190;-63
2021/01/26 01:51:05;;;;;;;11.30;7.00;;;3.00;99.90;;;;;;5030605;28;20179;-64
2021/01/26 01:53:34;;;;;;;13.90;8.77;;;2.90;99.90;;;;;;5016376;28;20545;-63
2021/01/26 01:56:08;;;;;;;12.07;9.83;;;2.90;99.90;;;;;;5011713;28;20528;-64
2021/01/26 01:58:43;;;;;;;17.87;9.57;;;2.90;99.90;;;;;;5025518;28;20175;-65
2021/01/26 02:01:11;;;;;;;16.27;9.30;;;2.80;99.90;;;;;;5031369;28;20163;-63
2021/01/26 02:03:41;;;;;;;15.17;8.50;;;2.80;99.90;;;;;;5016562;28;20184;-63
2021/01/26 02:06:09;;;;;;;14.63;8.20;;;2.80;99.90;;;;;;5011313;28;20784;-63
2021/01/26 02:08:53;;;;;;;17.47;8.17;;;2.80;99.90;;;;;;5012250;28;20299;-63
2021/01/26 02:11:19;;;;;;;13.17;7.77;;;2.80;99.90;;;;;;5011376;28;20188;-64
2021/01/26 02:13:46;;;;;;;12.37;7.93;;;2.70;99.90;;;;;;5028438;28;20207;-64
2021/01/26 02:16:33;;;;;;;13.03;7.53;;;2.70;99.90;;;;;;5021282;28;20295;-64
2021/01/26 02:19:29;;;;;;;11.33;7.63;;;2.70;99.90;;;;;;5011057;28;20251;-64
2021/01/26 02:22:24;;;;;;;14.97;7.07;;;2.70;99.90;;;;;;5025985;28;20528;-65
2021/01/26 02:24:59;;;;;;;10.57;7.67;;;2.70;99.90;;;;;;5030985;28;20202;-64
2021/01/26 02:28:02;;;;;;;11.00;8.77;;;2.80;99.90;;;;;;5012186;28;20250;-65
2021/01/26 02:30:43;;;;;;;13.50;7.77;;;2.80;99.90;;;;;;5016599;28;20176;-64
2021/01/26 02:33:18;;;;;;;9.13;7.00;;;2.80;99.90;;;;;;5034609;28;20225;-64
2021/01/26 02:35:52;;;;;;;21.33;9.73;;;2.80;99.90;;;;;;5030644;28;20215;-63
2021/01/26 02:38:48;;;;;;;18.47;8.60;;;2.80;99.90;;;;;;5014756;28;20559;-64
2021/01/26 02:41:28;;;;;;;17.33;9.90;;;2.80;99.90;;;;;;5021434;28;20184;-64
2021/01/26 02:44:29;;;;;;;12.47;7.70;;;2.90;99.90;;;;;;5034190;28;20175;-63
2021/01/26 02:47:36;;;;;;;12.03;8.33;;;2.90;99.90;;;;;;5020819;28;20281;-65
2021/01/26 02:50:08;;;;;;;13.80;7.10;;;2.90;99.90;;;;;;5014244;28;20207;-63
2021/01/26 02:52:43;;;;;;;13.40;7.20;;;2.90;99.90;;;;;;5031266;28;20211;-65
2021/01/26 02:55:37;;;;;;;17.27;7.70;;;2.90;99.90;;;;;;5034060;28;20597;-63
2021/01/26 02:58:12;;;;;;;10.57;6.23;;;2.90;99.90;;;;;;4994555;28;20279;-64
2021/01/26 03:00:39;;;;;;;14.20;7.23;;;2.90;99.90;;;;;;5028318;28;20675;-65
2021/01/26 03:03:33;;;;;;;7.03;6.33;;;2.80;99.90;;;;;;5033932;28;20267;-64
2021/01/26 03:06:12;;;;;;;13.40;7.30;;;2.80;99.90;;;;;;5014510;28;20785;-64
2021/01/26 03:08:50;;;;;;;15.77;9.23;;;2.80;99.90;;;;;;5013918;28;20259;-65
2021/01/26 03:11:41;;;;;;;12.87;8.17;;;2.80;99.90;;;;;;5027791;28;20183;-65
2021/01/26 03:14:13;;;;;;;7.93;6.30;;;2.70;99.90;;;;;;5030820;28;20211;-63
2021/01/26 03:16:43;;;;;;;6.00;5.43;;;2.70;99.90;;;;;;5013790;28;20200;-64
2021/01/26 03:19:14;;;;;;;6.30;5.33;;;2.70;99.90;;;;;;5016016;28;20199;-64
2021/01/26 03:21:43;;;;;;;9.87;7.90;;;2.80;99.90;;;;;;5033601;28;20179;-64
2021/01/26 03:24:14;;;;;;;10.37;6.10;;;2.80;99.90;;;;;;5031993;28;20217;-64
2021/01/26 03:26:40;;;;;;;13.17;8.10;;;2.80;99.90;;;;;;5033673;28;20214;-64
2021/01/26 03:29:08;;;;;;;14.57;8.50;;;2.80;99.90;;;;;;5015257;28;20367;-64
2021/01/26 03:31:47;;;;;;;13.27;9.20;;;2.80;99.90;;;;;;5013743;28;20177;-64
2021/01/26 03:34:13;;;;;;;13.93;9.47;;;2.80;99.90;;;;;;5031695;28;20211;-63
2021/01/26 03:36:40;;;;;;;14.23;7.53;;;2.80;99.90;;;;;;5033430;28;20225;-65
2021/01/26 03:39:07;;;;;;;17.73;8.33;;;2.80;99.90;;;;;;5015987;28;20184;-64
2021/01/26 03:41:32;;;;;;;18.23;8.87;;;2.90;99.90;;;;;;5013439;28;20211;-70
2021/01/26 03:43:58;;;;;;;16.57;7.77;;;2.90;99.90;;;;;;5015901;28;20192;-67
2021/01/26 03:46:37;;;;;;;21.43;8.93;;;2.90;99.90;;;;;;5014890;28;20215;-68
2021/01/26 03:49:33;;;;;;;16.00;8.43;;;2.90;99.90;;;;;;5029479;28;20198;-69
2021/01/26 03:52:01;;;;;;;12.50;7.77;;;2.90;99.90;;;;;;5034182;28;20179;-65
2021/01/26 03:54:37;;;;;;;12.73;7.47;;;2.90;99.90;;;;;;5016161;28;20235;-70
2021/01/26 03:57:49;;;;;;;15.33;8.60;;;2.90;99.90;;;;;;5028899;28;20179;-68
2021/01/26 04:00:35;;;;;;;15.50;7.63;;;2.80;99.90;;;;;;5034506;28;20172;-65
2021/01/26 04:03:15;;;;;;;10.87;6.20;;;2.70;99.90;;;;;;4995012;28;20181;-65
2021/01/26 04:06:16;;;;;;;9.83;6.10;;;2.70;99.90;;;;;;5007389;28;20660;-65
2021/01/26 04:08:50;;;;;;;6.57;4.70;;;2.70;99.90;;;;;;4992489;28;20264;-67
2021/01/26 04:11:38;;;;;;;11.80;7.07;;;2.70;99.90;;;;;;5017232;28;20195;-66
2021/01/26 04:14:09;;;;;;;10.73;6.10;;;2.70;99.90;;;;;;5014019;28;20204;-68
2021/01/26 04:16:50;;;;;;;18.53;7.93;;;2.70;99.90;;;;;;5026525;28;20234;-68
2021/01/26 04:19:27;;;;;;;8.97;5.67;;;2.70;99.90;;;;;;5033793;28;20637;-66
2021/01/26 04:21:53;;;;;;;9.77;6.87;;;2.70;99.90;;;;;;5018918;28;20199;-69
2021/01/26 04:24:19;;;;;;;13.17;7.50;;;2.70;99.90;;;;;;5014370;28;20588;-68
2021/01/26 04:26:48;;;;;;;18.57;7.90;;;2.70;99.90;;;;;;5026658;28;20210;-67
2021/01/26 04:29:13;;;;;;;7.30;4.93;;;2.70;99.90;;;;;;5034129;28;20250;-69
2021/01/26 04:31:39;;;;;;;15.00;7.80;;;2.70;99.90;;;;;;5022125;28;20270;-66
2021/01/26 04:34:04;;;;;;;10.83;6.70;;;2.70;99.90;;;;;;5013638;28;20200;-67
2021/01/26 04:36:30;;;;;;;16.80;6.40;;;2.70;99.90;;;;;;5023960;28;20616;-66
2021/01/26 04:38:56;;;;;;;12.50;6.47;;;2.70;99.90;;;;;;5033162;28;20298;-66
2021/01/26 04:41:43;;;;;;;11.87;6.93;;;2.70;99.90;;;;;;5025379;28;20180;-67
2021/01/26 04:44:18;;;;;;;16.77;7.53;;;2.70;99.90;;;;;;5013769;28;20298;-67
2021/01/26 04:47:01;;;;;;;11.50;8.00;;;2.70;99.90;;;;;;5014310;28;20211;-65
2021/01/26 04:49:38;;;;;;;15.93;8.13;;;2.70;99.90;;;;;;5012358;28;20187;-65
2021/01/26 04:52:23;;;;;;;15.53;7.50;;;2.80;99.90;;;;;;5013014;28;20188;-65
2021/01/26 04:54:51;;;;;;;16.33;7.53;;;2.80;99.90;;;;;;5012119;28;20211;-65
2021/01/26 04:57:41;;;;;;;11.43;5.93;;;2.80;99.90;;;;;;5027412;28;20207;-65
2021/01/26 05:00:18;;;;;;;8.23;5.03;;;2.80;99.90;;;;;;5031738;28;20175;-65
2021/01/26 05:03:12;;;;;;;11.50;5.77;;;2.80;99.90;;;;;;5008357;28;20180;-65
2021/01/26 05:05:42;;;;;;;13.00;4.80;;;2.80;99.90;;;;;;4995325;28;20223;-64
2021/01/26 05:08:16;;;;;;;11.93;3.77;;;2.80;99.90;;;;;;5025378;28;20183;-65
2021/01/26 05:10:48;;;;;;;5.57;4.13;;;2.80;99.90;;;;;;5030357;28;20695;-65
2021/01/26 05:13:22;;;;;;;12.27;6.73;;;2.70;99.90;;;;;;5012038;28;20588;-65
2021/01/26 05:15:54;;;;;;;13.97;6.50;;;2.70;99.90;;;;;;5013083;28;20216;-65
2021/01/26 05:18:31;;;;;;;11.03;5.73;;;2.70;99.90;;;;;;5031445;28;20179;-66
2021/01/26 05:21:05;;;;;;;10.10;6.27;;;2.60;99.90;;;;;;5012682;28;20182;-64
2021/01/26 05:23:41;;;;;;;14.93;6.17;;;2.50;99.90;;;;;;5012219;28;20609;-67
2021/01/26 05:26:12;;;;;;;8.17;4.07;;;2.30;99.90;;;;;;5031236;28;20290;-65
2021/01/26 05:28:42;;;;;;;16.93;7.83;;;2.30;99.90;;;;;;5031689;28;20178;-66
2021/01/26 05:31:13;;;;;;;19.43;6.20;;;2.30;99.90;;;;;;5012035;28;20175;-66
2021/01/26 05:33:39;;;;;;;13.97;8.23;;;2.40;99.90;;;;;;5011732;28;20180;-66
2021/01/26 05:36:05;;;;;;;9.97;7.10;;;2.40;99.90;;;;;;5029618;28;20265;-66
2021/01/26 05:38:31;;;;;;;7.30;5.57;;;2.50;99.90;;;;;;5031289;28;20176;-66
2021/01/26 05:41:01;;;;;;;9.47;7.03;;;2.50;99.90;;;;;;5015437;28;20188;-65
2021/01/26 05:43:29;;;;;;;13.10;7.53;;;2.50;99.90;;;;;;5012154;28;20194;-64
2021/01/26 05:45:58;;;;;;;9.33;6.77;;;2.60;99.90;;;;;;5017297;23;20236;-66
2021/01/26 05:48:25;;;;;;;13.23;8.30;;;2.60;99.90;;;;;;5003173;28;20172;-65
2021/01/26 05:51:12;;;;;;;17.77;7.50;;;2.50;99.90;;;;;;5011659;28;20637;-66
2021/01/26 05:53:38;;;;;;;9.73;5.83;;;2.60;99.90;;;;;;4998452;28;20564;-66
2021/01/26 05:56:11;;;;;;;10.67;6.43;;;2.60;99.90;;;;;;4991752;28;20193;-66
2021/01/26 05:58:39;;;;;;;11.77;7.20;;;2.60;99.90;;;;;;5003504;28;20536;-66
2021/01/26 06:01:32;;;;;;;16.77;6.77;;;2.50;99.90;;;;;;5011868;28;20160;-66
2021/01/26 06:04:16;;;;;;;14.63;7.73;;;2.40;99.90;;;;;;4998952;28;20188;-65
2021/01/26 06:06:51;;;;;;;7.90;5.80;;;2.40;99.90;;;;;;5009721;28;20261;-66
2021/01/26 06:09:44;;;;;;;19.13;8.70;;;2.30;99.90;;;;;;5015173;28;20319;-66
2021/01/26 06:12:11;;;;;;;12.40;8.07;;;2.30;99.90;;;;;;4996889;28;20184;-66
2021/01/26 06:14:38;;;;;;;13.30;6.73;;;2.20;99.90;;;;;;4995689;28;20292;-66
2021/01/26 06:17:18;;;;;;;14.67;7.70;;;2.30;99.90;;;;;;5010321;28;20188;-66
2021/01/26 06:19:44;;;;;;;13.27;7.40;;;2.20;99.90;;;;;;5015158;28;20175;-66
2021/01/26 06:22:22;;;;;;;19.23;8.63;;;2.20;99.90;;;;;;4999447;28;20173;-67
2021/01/26 06:24:50;;;;;;;7.73;6.70;;;2.20;99.90;;;;;;4995655;28;20638;-66
2021/01/26 06:27:25;;;;;;;17.60;8.43;;;2.20;99.90;;;;;;5010442;28;20184;-66
2021/01/26 06:30:06;;;;;;;17.60;8.63;;;2.20;99.90;;;;;;5014866;28;20175;-66
2021/01/26 06:32:50;;;;;;;12.33;7.43;;;2.20;99.90;;;;;;4997630;28;20215;-66
2021/01/26 06:35:32;;;;;;;11.97;7.70;;;2.20;99.90;;;;;;4995110;28;20286;-66
2021/01/26 06:38:45;;;;;;;15.60;8.23;;;2.20;99.90;;;;;;4975279;28;20174;-66
2021/01/26 06:41:24;;;;;;;16.47;8.50;;;2.20;99.90;;;;;;4985570;28;20184;-66
2021/01/26 06:43:56;;;;;;;12.67;6.53;;;2.20;99.90;;;;;;5011735;28;20184;-66
2021/01/26 06:46:27;;;;;;;17.07;9.30;;;2.20;99.90;;;;;;4994705;28;20212;-66
2021/01/26 06:49:11;;;;;;;19.70;9.93;;;2.20;99.90;;;;;;4996805;28;20247;-66
2021/01/26 06:51:50;;;;;;;12.93;7.77;;;2.20;99.90;;;;;;5014609;28;20206;-66
2021/01/26 06:54:27;;;;;;;17.27;7.60;;;2.20;99.90;;;;;;5009279;28;20242;-65
2021/01/26 06:57:24;;;;;;;14.27;9.30;;;2.20;99.90;;;;;;5004648;28;20196;-66
2021/01/26 07:00:21;;;;;;;24.30;10.97;;;2.30;99.90;;;;;;5005249;28;20268;-65
2021/01/26 07:03:05;;;;;;;20.00;8.40;;;2.30;99.90;;;;;;4994750;28;20176;-65
2021/01/26 07:05:45;;;;;;;18.83;8.87;;;2.30;99.90;;;;;;5008348;28;20230;-65
2021/01/26 07:08:33;;;;;;;13.23;8.30;;;2.40;99.90;;;;;;5013860;28;20598;-65
2021/01/26 07:11:37;;;;;;;12.20;7.97;;;2.40;99.90;;;;;;4997419;28;20181;-66
2021/01/26 07:14:09;;;;;;;18.03;9.23;;;2.30;99.90;;;;;;4997845;28;20220;-66
2021/01/26 07:16:46;;;;;;;17.67;10.30;;;2.00;99.90;;;;;;5013956;28;20192;-65
2021/01/26 07:19:33;;;;;;;13.80;8.40;;;1.90;99.90;;;;;;4995185;28;20559;-65
2021/01/26 07:22:17;;;;;;;18.13;10.13;;;1.90;99.90;;;;;;4992178;28;20260;-65
2021/01/26 07:25:11;;;;;;;17.67;7.93;;;2.00;99.90;;;;;;5013986;28;20708;-65
2021/01/26 07:27:51;;;;;;;14.87;10.00;;;2.00;99.90;;;;;;5009214;28;20172;-66
2021/01/26 07:30:22;;;;;;;17.17;9.77;;;2.00;99.90;;;;;;4994035;28;20255;-65
2021/01/26 07:32:47;;;;;;;22.80;9.93;;;2.10;99.90;;;;;;4998721;28;20173;-66
2021/01/26 07:35:19;;;;;;;15.10;9.27;;;2.20;99.90;;;;;;5013469;28;20223;-66
2021/01/26 07:37:53;;;;;;;11.80;6.40;;;2.20;99.90;;;;;;5009382;28;20203;-65
2021/01/26 07:40:26;;;;;;;16.57;9.93;;;2.30;99.90;;;;;;5007875;28;20922;-65
2021/01/26 07:43:17;;;;;;;22.60;10.37;;;2.30;99.90;;;;;;5009313;28;20169;-66
2021/01/26 07:45:58;;;;;;;14.20;9.07;;;2.30;99.90;;;;;;4993704;28;20219;-67
2021/01/26 07:48:42;;;;;;;19.63;11.33;;;2.30;99.90;;;;;;5000951;28;20188;-66
2021/01/26 07:51:15;;;;;;;18.63;9.10;;;2.30;99.90;;;;;;5013179;28;20200;-66
2021/01/26 07:53:57;;;;;;;18.70;9.80;;;2.40;99.90;;;;;;5003761;28;20177;-65
2021/01/26 07:56:36;;;;;;;14.17;9.30;;;2.40;99.90;;;;;;4993459;28;20220;-66
2021/01/26 07:59:05;;;;;;;14.30;9.30;;;2.40;99.90;;;;;;5004419;28;20178;-65
2021/01/26 08:01:39;;;;;;;13.67;8.90;;;2.40;99.90;;;;;;4998747;28;20636;-66
2021/01/26 08:04:06;;;;;;;20.73;10.33;;;2.40;99.90;;;;;;4994197;28;20180;-65
2021/01/26 08:06:40;;;;;;;12.10;7.07;;;2.40;99.90;;;;;;5011797;28;20196;-65
2021/01/26 08:09:20;;;;;;;16.73;9.57;;;2.40;99.90;;;;;;5002085;28;20642;-66
2021/01/26 08:11:53;;;;;;;14.93;7.97;;;2.40;99.90;;;;;;4993719;28;20177;-66
2021/01/26 08:14:26;;;;;;;18.03;10.60;;;2.50;99.90;;;;;;5004387;28;20211;-67
2021/01/26 08:16:55;;;;;;;15.53;8.63;;;2.50;99.90;;;;;;5001781;28;20200;-65
2021/01/26 08:19:32;;;;;;;18.00;8.57;;;2.60;99.90;;;;;;5004950;28;20255;-65
2021/01/26 08:21:59;;;;;;;11.20;6.53;;;2.60;99.90;;;;;;4992951;28;20176;-66
2021/01/26 08:24:33;;;;;;;19.03;9.20;;;2.70;99.90;;;;;;5003223;28;20259;-66
2021/01/26 08:27:21;;;;;;;16.30;8.80;;;2.70;99.90;;;;;;5011731;28;20275;-65
2021/01/26 08:29:47;;;;;;;16.00;7.67;;;2.70;99.90;;;;;;4995892;28;20201;-66
2021/01/26 08:32:25;;;;;;;14.67;7.30;;;2.70;99.90;;;;;;4992722;28;20247;-65
2021/01/26 08:35:05;;;;;;;11.20;6.33;;;2.80;99.90;;;;;;4993997;28;20247;-65
2021/01/26 08:37:40;;;;;;;11.87;6.90;;;2.80;99.90;;;;;;4992516;28;20169;-66
2021/01/26 08:40:11;;;;;;;12.90;7.40;;;2.80;99.90;;;;;;5009387;28;20226;-66
2021/01/26 08:42:42;;;;;;;19.97;8.60;;;2.80;99.90;;;;;;5012405;28;20169;-65
2021/01/26 08:45:16;;;;;;;14.70;7.03;;;2.70;99.90;;;;;;5009484;28;20184;-65
2021/01/26 08:47:44;;;;;;;15.70;7.67;;;2.70;99.90;;;;;;5012035;28;20184;-66
2021/01/26 08:50:15;;;;;;;14.10;7.93;;;2.70;99.90;;;;;;4994597;28;20185;-66
2021/01/26 08:52:41;;;;;;;16.30;6.17;;;2.70;99.90;;;;;;4992858;28;20211;-64
2021/01/26 08:55:07;;;;;;;17.47;8.73;;;2.70;99.90;;;;;;5010133;28;20716;-66
2021/01/26 08:57:32;;;;;;;16.80;7.27;;;2.70;99.90;;;;;;5011828;28;20584;-65
2021/01/26 09:00:24;;;;;;;12.63;8.00;;;2.80;99.90;;;;;;4995299;28;20189;-65
2021/01/26 09:02:52;;;;;;;10.10;7.57;;;2.70;99.90;;;;;;4992668;28;20207;-66
2021/01/26 09:05:36;;;;;;;15.80;4.53;;;2.80;99.90;;;;;;5010529;28;20198;-66
2021/01/26 09:08:05;;;;;;;8.33;5.93;;;2.80;99.90;;;;;;4997508;28;20180;-65
2021/01/26 09:10:37;;;;;;;12.57;7.53;;;2.80;99.90;;;;;;4992277;28;20258;-65
2021/01/26 09:13:14;;;;;;;12.77;8.60;;;2.80;99.90;;;;;;5005283;28;20517;-65
2021/01/26 09:15:53;;;;;;;17.93;7.60;;;2.90;99.90;;;;;;5010133;28;20286;-65
2021/01/26 09:18:22;;;;;;;10.40;6.63;;;2.90;99.90;;;;;;5011448;28;20172;-65
2021/01/26 09:20:52;;;;;;;18.70;8.30;;;2.90;99.90;;;;;;5002334;28;20172;-64
2021/01/26 09:23:22;;;;;;;12.83;7.53;;;2.90;99.90;;;;;;4992139;28;20169;-65
2021/01/26 09:25:47;;;;;;;15.47;7.57;;;3.00;99.90;;;;;;5000487;28;20207;-65
2021/01/26 09:28:22;;;;;;;9.67;6.47;;;3.00;99.90;;;;;;5011271;28;20639;-66
2021/01/26 09:30:56;;;;;;;11.27;6.80;;;2.90;99.90;;;;;;5003743;28;20384;-65
2021/01/26 09:33:26;;;;;;;14.23;7.80;;;2.90;99.90;;;;;;4992157;28;20187;-65
2021/01/26 09:35:54;;;;;;;13.27;6.90;;;2.90;99.90;;;;;;4999405;28;20550;-66
2021/01/26 09:38:34;;;;;;;13.43;8.00;;;3.00;99.90;;;;;;5012496;28;20176;-65
2021/01/26 09:41:12;;;;;;;15.03;7.20;;;3.00;99.90;;;;;;5007513;28;20633;-65
2021/01/26 09:43:46;;;;;;;15.63;8.23;;;3.00;99.90;;;;;;5000810;28;20180;-65
2021/01/26 09:46:26;;;;;;;14.83;8.53;;;3.00;99.90;;;;;;5015379;28;20294;-65
2021/01/26 09:49:06;;;;;;;12.50;9.13;;;3.10;99.90;;;;;;5008925;28;20548;-65
2021/01/26 09:51:39;;;;;;;19.40;9.83;;;3.20;99.90;;;;;;4996027;28;20604;-65
2021/01/26 09:54:10;;;;;;;12.33;8.17;;;3.20;99.90;;;;;;5002426;28;20608;-64
2021/01/26 09:56:38;;;;;;;15.20;7.57;;;3.20;99.90;;;;;;5015439;28;20188;-66
2021/01/26 09:59:05;;;;;;;15.67;8.20;;;3.20;99.90;;;;;;5008391;28;20579;-66
2021/01/26 10:01:33;;;;;;;12.93;7.90;;;3.20;99.90;;;;;;4995823;28;20180;-65
2021/01/26 10:04:06;;;;;;;8.67;7.67;;;3.20;99.90;;;;;;5008315;28;20601;-65
2021/01/26 10:06:33;;;;;;;8.03;5.80;;;3.20;99.90;;;;;;5015223;28;20681;-65
2021/01/26 10:09:28;;;;;;;13.13;8.07;;;3.20;99.90;;;;;;5002439;28;20189;-66
2021/01/26 10:12:15;;;;;;;13.90;7.10;;;3.30;99.90;;;;;;4999426;28;20191;-66
2021/01/26 10:14:40;;;;;;;11.47;7.60;;;3.30;99.90;;;;;;5014947;28;20299;-66
2021/01/26 10:17:12;;;;;;;11.87;7.30;;;3.40;99.90;;;;;;5009207;28;20308;-65
2021/01/26 10:19:38;;;;;;;14.43;7.50;;;3.40;99.90;;;;;;4995379;28;20191;-65
2021/01/26 10:22:18;;;;;;;11.00;7.53;;;3.30;99.90;;;;;;4999414;28;20638;-65
2021/01/26 10:24:44;;;;;;;13.07;8.33;;;3.40;99.90;;;;;;4996809;28;20176;-65
2021/01/26 10:27:20;;;;;;;14.63;6.70;;;3.30;99.90;;;;;;4995807;28;20193;-65
2021/01/26 10:29:46;;;;;;;6.83;5.80;;;3.30;99.90;;;;;;4995231;28;20259;-65
2021/01/26 10:32:33;;;;;;;15.43;8.00;;;3.30;99.90;;;;;;4999103;28;20519;-66
2021/01/26 10:34:59;;;;;;;8.13;6.97;;;3.40;99.90;;;;;;5014427;28;20685;-66
2021/01/26 10:37:24;;;;;;;13.37;8.03;;;3.50;99.90;;;;;;5008556;28;20184;-66
2021/01/26 10:40:09;;;;;;;10.83;6.53;;;3.50;99.90;;;;;;4998732;28;20564;-65
2021/01/26 10:42:35;;;;;;;12.40;6.57;;;3.70;99.90;;;;;;5014470;28;20291;-66
2021/01/26 10:45:01;;;;;;;11.77;7.33;;;3.70;99.90;;;;;;5009424;28;20216;-66
2021/01/26 10:47:33;;;;;;;9.33;7.23;;;3.70;99.90;;;;;;4994681;28;20256;-65
2021/01/26 10:50:04;;;;;;;14.93;7.73;;;3.80;99.90;;;;;;4998114;28;20180;-66
2021/01/26 10:52:49;;;;;;;12.57;6.87;;;3.80;99.90;;;;;;5014370;28;20188;-65
2021/01/26 10:55:18;;;;;;;11.40;7.17;;;3.90;99.90;;;;;;5008438;28;20292;-66
2021/01/26 10:57:45;;;;;;;11.03;6.93;;;4.00;99.90;;;;;;4994356;28;20169;-66
2021/01/26 11:00:18;;;;;;;15.27;7.93;;;4.00;99.90;;;;;;4998584;28;20202;-65
2021/01/26 11:02:43;;;;;;;11.30;6.90;;;3.90;99.90;;;;;;5014133;28;20680;-66
2021/01/26 11:05:12;;;;;;;11.67;6.47;;;4.00;99.90;;;;;;5010112;28;20189;-65
2021/01/26 11:07:38;;;;;;;6.03;5.33;;;4.10;99.90;;;;;;4994379;28;20188;-66
2021/01/26 11:10:05;;;;;;;14.77;7.43;;;4.10;99.90;;;;;;5013299;28;20650;-65
2021/01/26 11:12:30;;;;;;;9.20;5.00;;;4.10;99.90;;;;;;5013953;28;20187;-66
2021/01/26 11:14:56;;;;;;;16.63;6.83;;;4.20;99.90;;;;;;4996118;28;20690;-66
2021/01/26 11:17:22;;;;;;;9.67;6.17;;;4.20;99.90;;;;;;4994260;28;20233;-65
2021/01/26 11:19:48;;;;;;;10.50;6.90;;;4.30;99.90;;;;;;5009768;28;20654;-66
2021/01/26 11:22:15;;;;;;;12.30;7.13;;;4.40;99.90;;;;;;5013619;28;20267;-65
2021/01/26 11:24:42;;;;;;;13.43;7.23;;;4.40;99.90;;;;;;4999319;28;20189;-64
2021/01/26 11:27:08;;;;;;;9.43;6.33;;;4.50;99.90;;;;;;4993741;28;20197;-65
2021/01/26 11:29:34;;;;;;;9.70;6.77;;;4.50;99.90;;;;;;5006760;28;20192;-65
2021/01/26 11:32:00;;;;;;;12.37;7.20;;;4.60;99.90;;;;;;5013405;28;20173;-65
2021/01/26 11:34:25;;;;;;;11.30;6.43;;;4.90;99.90;;;;;;5005743;28;20204;-65
2021/01/26 11:36:51;;;;;;;9.80;6.83;;;5.10;99.90;;;;;;4993965;28;20205;-64
2021/01/26 11:39:17;;;;;;;11.47;5.63;;;5.00;99.90;;;;;;5002984;28;20255;-66
2021/01/26 11:41:42;;;;;;;10.27;5.80;;;4.90;99.90;;;;;;5013467;28;20259;-64
2021/01/26 11:44:08;;;;;;;12.77;5.97;;;4.70;99.90;;;;;;5005201;28;20181;-65
2021/01/26 11:49:02;;;;;;;5.63;4.47;;;4.70;99.90;;;;;;4991736;28;20299;-64
2021/01/26 11:51:27;;;;;;;12.83;6.43;;;4.50;99.90;;;;;;4993760;28;20586;-64
2021/01/26 11:53:53;;;;;;;11.70;7.03;;;4.40;99.90;;;;;;4993328;28;20189;-64
2021/01/26 11:56:21;;;;;;;9.33;5.03;;;4.30;99.90;;;;;;4993325;28;20647;-64
2021/01/26 11:58:47;;;;;;;7.13;4.80;;;4.30;99.90;;;;;;4992335;28;20177;-64
2021/01/26 12:01:13;;;;;;;8.87;3.87;;;4.30;99.90;;;;;;4992860;28;20173;-64
2021/01/26 12:03:39;;;;;;;11.10;6.43;;;4.20;99.90;;;;;;4979030;28;20177;-64
2021/01/26 12:06:05;;;;;;;11.07;5.70;;;4.10;99.90;;;;;;4973576;28;20284;-62
2021/01/26 12:08:30;;;;;;;6.23;5.20;;;4.20;99.90;;;;;;4986305;28;20195;-64
2021/01/26 12:10:56;;;;;;;5.83;4.53;;;4.10;99.90;;;;;;4993487;28;20203;-63
2021/01/26 12:13:22;;;;;;;10.73;5.73;;;4.10;99.90;;;;;;4981941;28;20702;-63
2021/01/26 12:15:48;;;;;;;9.10;6.57;;;4.10;99.90;;;;;;4973944;28;20469;-62
2021/01/26 12:18:14;;;;;;;8.50;5.63;;;4.20;99.90;;;;;;4982279;28;20212;-64
2021/01/26 12:20:40;;;;;;;5.40;4.83;;;4.20;99.90;;;;;;4993107;28;20581;-63
2021/01/26 12:23:06;;;;;;;10.80;4.73;;;4.20;99.90;;;;;;4984860;28;20591;-64
2021/01/26 12:25:34;;;;;;;6.77;4.73;;;4.20;99.90;;;;;;4973684;28;20208;-64
2021/01/26 12:28:01;;;;;;;7.43;5.37;;;4.30;99.90;;;;;;4979350;28;20728;-63
2021/01/26 12:30:27;;;;;;;10.13;6.00;;;4.20;99.90;;;;;;4990686;28;20177;-64
2021/01/26 12:32:53;;;;;;;10.90;5.43;;;4.20;99.90;;;;;;4973504;28;20205;-64
2021/01/26 12:35:23;;;;;;;11.90;5.60;;;4.30;99.90;;;;;;4973385;28;20279;-63
2021/01/26 12:37:49;;;;;;;8.97;5.30;;;4.30;99.90;;;;;;4992634;28;20220;-64
2021/01/26 12:40:15;;;;;;;7.43;4.60;;;4.40;99.90;;;;;;4992662;28;20173;-63
2021/01/26 12:42:41;;;;;;;8.33;5.20;;;4.50;99.90;;;;;;4973740;28;20177;-64
2021/01/26 12:45:09;;;;;;;8.50;5.90;;;4.60;99.90;;;;;;4973278;28;20277;-63
2021/01/26 12:47:34;;;;;;;6.00;5.17;;;4.70;99.90;;;;;;4990112;28;20219;-64
2021/01/26 12:50:00;;;;;;;14.33;5.10;;;4.80;99.90;;;;;;4992804;28;20173;-63
2021/01/26 12:52:26;;;;;;;10.00;5.90;;;4.90;99.90;;;;;;4981057;28;20231;-64
2021/01/26 12:54:51;;;;;;;11.37;5.83;;;5.00;99.90;;;;;;4972149;28;20255;-64
2021/01/26 12:57:17;;;;;;;9.23;4.83;;;5.00;99.90;;;;;;4973482;28;20193;-64
2021/01/26 12:59:43;;;;;;;12.20;4.80;;;5.00;99.90;;;;;;4982525;28;20195;-64
2021/01/26 13:02:09;;;;;;;10.30;5.47;;;5.00;99.90;;;;;;4992206;28;20169;-62
2021/01/26 13:04:34;;;;;;;13.37;4.97;;;5.00;99.90;;;;;;4984450;28;20547;-64
2021/01/26 13:07:00;;;;;;;8.67;5.40;;;5.10;99.90;;;;;;4972845;28;20225;-64
2021/01/26 13:09:25;;;;;;;12.53;6.10;;;5.10;99.90;;;;;;4975038;28;20181;-66
2021/01/26 13:11:51;;;;;;;11.63;5.60;;;5.20;99.90;;;;;;4992157;28;20173;-62
2021/01/26 13:14:17;;;;;;;15.60;5.53;;;5.30;99.90;;;;;;4987261;28;20295;-63
2021/01/26 13:16:42;;;;;;;8.50;4.47;;;5.30;99.90;;;;;;4972696;28;20220;-62
2021/01/26 13:19:08;;;;;;;5.83;4.53;;;5.30;99.90;;;;;;4975048;28;20616;-64